Time,TemperatureF,DewpointF,PressureIn,WindDirection,WindDirectionDegrees,WindSpeedMPH,WindSpeedGustMPH,Humidity,HourlyPrecipIn,Conditions,Clouds,dailyrainin,SolarRadiationWatts/m^2,SoftwareType,DateUTC
2013-09-19 00:13:00,52.7,39.0,30.16,East,89,5.0,12.0,61,0.00,,,0.00,0,weatherlink.com 1.10,2013-09-19 06:13:00,
2013-09-19 00:28:00,52.5,39.0,30.16,East,91,3.0,9.0,61,0.00,,,0.00,0,weatherlink.com 1.10,2013-09-19 06:28:00,
2013-09-19 00:43:00,52.6,39.0,30.17,ESE,123,1.0,7.0,61,0.00,,,0.00,0,weatherlink.com 1.10,2013-09-19 06:43:00,
2013-09-19 00:58:00,52.7,39.0,30.17,East,91,4.0,8.0,60,0.00,,,0.00,0,weatherlink.com 1.10,2013-09-19 06:58:00,
2013-09-19 01:13:00,52.8,39.0,30.18,ESE,108,2.0,7.0,60,0.00,,,0.00,0,weatherlink.com 1.10,2013-09-19 07:13:00,
2013-09-19 01:28:00,52.7,39.0,30.18,ESE,103,4.0,5.0,61,0.00,,,0.00,0,weatherlink.com 1.10,2013-09-19 07:28:00,
2013-09-19 01:43:00,52.7,39.0,30.18,East,97,5.0,7.0,61,0.00,,,0.00,0,weatherlink.com 1.10,2013-09-19 07:43:00,
2013-09-19 01:58:00,52.5,39.0,30.19,ESE,121,2.0,4.0,61,0.00,,,0.00,0,weatherlink.com 1.10,2013-09-19 07:58:00,
2013-09-19 02:13:00,52.4,39.0,30.19,ESE,112,3.0,5.0,61,0.00,,,0.00,0,weatherlink.com 1.10,2013-09-19 08:13:00,
2013-09-19 02:28:00,52.4,39.0,30.19,SE,133,0.0,3.0,61,0.00,,,0.00,0,weatherlink.com 1.10,2013-09-19 08:28:00,
2013-09-19 02:43:00,52.1,40.0,30.19,ESE,114,2.0,3.0,63,0.00,,,0.00,0,weatherlink.com 1.10,2013-09-19 08:43:00,
2013-09-19 02:58:00,51.8,40.0,30.19,ESE,103,5.0,5.0,64,0.00,,,0.00,0,weatherlink.com 1.10,2013-09-19 08:58:00,
2013-09-19 03:13:00,51.4,39.0,30.19,ESE,104,3.0,6.0,64,0.00,,,0.00,0,weatherlink.com 1.10,2013-09-19 09:13:00,
2013-09-19 03:28:00,51.1,40.0,30.19,ESE,104,4.0,5.0,65,0.00,,,0.00,0,weatherlink.com 1.10,2013-09-19 09:28:00,
2013-09-19 03:43:00,51.0,40.0,30.19,ESE,106,0.0,3.0,65,0.00,,,0.00,0,weatherlink.com 1.10,2013-09-19 09:43:00,
2013-09-19 03:58:00,49.9,41.0,30.19,ESE,106,0.0,0.0,71,0.00,,,0.00,0,weatherlink.com 1.10,2013-09-19 09:58:00,
2013-09-19 04:13:00,49.1,41.0,30.20,ESE,102,0.0,1.0,73,0.00,,,0.00,0,weatherlink.com 1.10,2013-09-19 10:13:00,
2013-09-19 04:28:00,48.9,41.0,30.20,ESE,102,0.0,0.0,73,0.00,,,0.00,0,weatherlink.com 1.10,2013-09-19 10:28:00,
2013-09-19 04:44:00,49.0,41.0,30.21,ESE,102,0.0,0.0,73,0.00,,,0.00,0,weatherlink.com 1.10,2013-09-19 10:44:00,
2013-09-19 04:59:00,50.4,39.0,30.21,ESE,114,7.0,7.0,66,0.00,,,0.00,0,weatherlink.com 1.10,2013-09-19 10:59:00,
2013-09-19 05:14:00,50.4,41.0,30.21,ESE,117,0.0,8.0,70,0.00,,,0.00,0,weatherlink.com 1.10,2013-09-19 11:14:00,
2013-09-19 05:29:00,47.6,41.0,30.21,ESE,117,0.0,0.0,77,0.00,,,0.00,0,weatherlink.com 1.10,2013-09-19 11:29:00,
2013-09-19 05:44:00,47.6,39.0,30.22,ESE,108,4.0,5.0,72,0.00,,,0.00,0,weatherlink.com 1.10,2013-09-19 11:44:00,
2013-09-19 05:59:00,48.6,39.0,30.22,ESE,112,4.0,5.0,69,0.00,,,0.00,0,weatherlink.com 1.10,2013-09-19 11:59:00,
2013-09-19 06:14:00,49.3,39.0,30.23,ESE,121,4.0,5.0,67,0.00,,,0.00,0,weatherlink.com 1.10,2013-09-19 12:14:00,
2013-09-19 06:29:00,49.3,39.0,30.23,SSE,160,2.0,7.0,67,0.00,,,0.00,0,weatherlink.com 1.10,2013-09-19 12:29:00,
2013-09-19 06:44:00,48.6,39.0,30.23,SE,142,0.0,2.0,70,0.00,,,0.00,0,weatherlink.com 1.10,2013-09-19 12:44:00,
2013-09-19 06:59:00,47.3,41.0,30.24,SE,142,0.0,0.0,79,0.00,,,0.00,0,weatherlink.com 1.10,2013-09-19 12:59:00,
2013-09-19 07:14:00,46.2,40.0,30.24,SE,142,0.0,0.0,80,0.00,,,0.00,0,weatherlink.com 1.10,2013-09-19 13:14:00,
2013-09-19 07:29:00,46.3,40.0,30.25,SE,142,0.0,0.0,78,0.00,,,0.00,5,weatherlink.com 1.10,2013-09-19 13:29:00,
2013-09-19 07:44:00,46.4,40.0,30.25,SE,142,0.0,0.0,77,0.00,,,0.00,12,weatherlink.com 1.10,2013-09-19 13:44:00,
2013-09-19 07:59:00,46.8,40.0,30.26,SE,142,0.0,0.0,77,0.00,,,0.00,30,weatherlink.com 1.10,2013-09-19 13:59:00,
2013-09-19 08:14:00,47.0,40.0,30.27,SSE,165,4.0,4.0,76,0.00,,,0.00,54,weatherlink.com 1.10,2013-09-19 14:14:00,
2013-09-19 08:29:00,47.7,39.0,30.27,SSE,162,3.0,5.0,71,0.00,,,0.00,76,weatherlink.com 1.10,2013-09-19 14:29:00,
2013-09-19 08:44:00,48.1,39.0,30.27,SE,139,3.0,9.0,70,0.00,,,0.00,90,weatherlink.com 1.10,2013-09-19 14:44:00,
2013-09-19 08:59:00,47.7,38.0,30.28,SSE,160,1.0,8.0,70,0.00,,,0.00,62,weatherlink.com 1.10,2013-09-19 14:59:00,
2013-09-19 09:14:00,48.5,39.0,30.27,SSE,163,1.0,6.0,69,0.00,,,0.00,234,weatherlink.com 1.10,2013-09-19 15:14:00,
2013-09-19 09:29:00,49.3,39.0,30.27,SSE,168,1.0,7.0,67,0.00,,,0.00,274,weatherlink.com 1.10,2013-09-19 15:29:00,
2013-09-19 09:44:00,50.1,39.0,30.27,SSW,206,2.0,6.0,67,0.00,,,0.00,316,weatherlink.com 1.10,2013-09-19 15:44:00,
2013-09-19 09:59:00,50.9,40.0,30.27,South,175,1.0,4.0,66,0.00,,,0.00,353,weatherlink.com 1.10,2013-09-19 15:59:00,
2013-09-19 10:15:00,51.8,40.0,30.28,South,175,2.0,5.0,65,0.00,,,0.00,396,weatherlink.com 1.10,2013-09-19 16:15:00,
2013-09-19 10:45:00,54.3,41.0,30.27,South,170,0.0,8.0,62,0.00,,,0.00,471,weatherlink.com 1.10,2013-09-19 16:45:00,
2013-09-19 11:00:00,55.2,40.0,30.26,SW,217,5.0,8.0,57,0.00,,,0.00,506,weatherlink.com 1.10,2013-09-19 17:00:00,
2013-09-19 11:15:00,55.9,39.0,30.26,SE,137,6.0,11.0,54,0.00,,,0.00,538,weatherlink.com 1.10,2013-09-19 17:15:00,
2013-09-19 11:30:00,56.9,39.0,30.25,SSE,160,1.0,7.0,52,0.00,,,0.00,570,weatherlink.com 1.10,2013-09-19 17:30:00,
2013-09-19 11:45:00,57.6,39.0,30.25,SE,146,4.0,10.0,50,0.00,,,0.00,577,weatherlink.com 1.10,2013-09-19 17:45:00,
2013-09-19 12:00:00,58.7,40.0,30.24,SSE,155,4.0,10.0,50,0.00,,,0.00,619,weatherlink.com 1.10,2013-09-19 18:00:00,
2013-09-19 12:15:00,59.4,40.0,30.23,SSW,196,1.0,10.0,49,0.00,,,0.00,642,weatherlink.com 1.10,2013-09-19 18:15:00,
2013-09-19 12:30:00,60.1,40.0,30.23,SSE,156,3.0,6.0,47,0.00,,,0.00,661,weatherlink.com 1.10,2013-09-19 18:30:00,
2013-09-19 12:45:00,61.3,40.0,30.22,WSW,239,2.0,10.0,45,0.00,,,0.00,673,weatherlink.com 1.10,2013-09-19 18:45:00,
2013-09-19 13:00:00,62.0,38.0,30.22,South,190,1.0,11.0,42,0.00,,,0.00,671,weatherlink.com 1.10,2013-09-19 19:00:00,
2013-09-19 13:15:00,62.2,35.0,30.21,SSE,158,1.0,11.0,37,0.00,,,0.00,698,weatherlink.com 1.10,2013-09-19 19:15:00,
2013-09-19 13:30:00,63.1,36.0,30.20,SSE,151,1.0,10.0,37,0.00,,,0.00,701,weatherlink.com 1.10,2013-09-19 19:30:00,
2013-09-19 13:45:00,63.3,36.0,30.20,South,177,0.0,10.0,36,0.00,,,0.00,339,weatherlink.com 1.10,2013-09-19 19:45:00,
2013-09-19 14:00:00,64.1,33.0,30.19,SSW,202,7.0,11.0,31,0.00,,,0.00,318,weatherlink.com 1.10,2013-09-19 20:00:00,
2013-09-19 14:15:00,64.3,33.0,30.18,SSW,211,5.0,9.0,31,0.00,,,0.00,701,weatherlink.com 1.10,2013-09-19 20:15:00,
2013-09-19 14:30:00,64.8,33.0,30.18,South,182,5.0,12.0,31,0.00,,,0.00,693,weatherlink.com 1.10,2013-09-19 20:30:00,
2013-09-19 14:46:00,65.6,32.0,30.17,SE,134,6.0,11.0,29,0.00,,,0.00,682,weatherlink.com 1.10,2013-09-19 20:46:00,
2013-09-19 15:01:00,66.2,32.0,30.16,South,175,6.0,12.0,28,0.00,,,0.00,668,weatherlink.com 1.10,2013-09-19 21:01:00,
2013-09-19 15:16:00,66.2,32.0,30.16,SE,135,3.0,9.0,28,0.00,,,0.00,647,weatherlink.com 1.10,2013-09-19 21:16:00,
2013-09-19 15:31:00,66.3,33.0,30.16,ENE,62,2.0,5.0,29,0.00,,,0.00,626,weatherlink.com 1.10,2013-09-19 21:31:00,
2013-09-19 15:46:00,67.9,33.0,30.15,SSE,160,4.0,9.0,27,0.00,,,0.00,601,weatherlink.com 1.10,2013-09-19 21:46:00,
2013-09-19 16:01:00,67.1,34.0,30.14,SW,231,3.0,7.0,29,0.00,,,0.00,575,weatherlink.com 1.10,2013-09-19 22:01:00,
2013-09-19 16:16:00,67.3,34.0,30.13,WSW,245,6.0,7.0,29,0.00,,,0.00,543,weatherlink.com 1.10,2013-09-19 22:16:00,
2013-09-19 16:31:00,67.4,33.0,30.13,WSW,237,2.0,8.0,28,0.00,,,0.00,512,weatherlink.com 1.10,2013-09-19 22:31:00,
2013-09-19 16:46:00,67.6,33.0,30.12,WNW,291,2.0,8.0,28,0.00,,,0.00,469,weatherlink.com 1.10,2013-09-19 22:46:00,
2013-09-19 17:01:00,68.1,35.0,30.12,SW,234,5.0,7.0,29,0.00,,,0.00,454,weatherlink.com 1.10,2013-09-19 23:01:00,
2013-09-19 17:16:00,68.1,35.0,30.11,SW,227,3.0,7.0,29,0.00,,,0.00,404,weatherlink.com 1.10,2013-09-19 23:16:00,
2013-09-19 17:31:00,68.2,35.0,30.11,West,262,1.0,5.0,29,0.00,,,0.00,366,weatherlink.com 1.10,2013-09-19 23:31:00,
2013-09-19 17:46:00,68.8,35.0,30.10,WSW,237,2.0,7.0,29,0.00,,,0.00,322,weatherlink.com 1.10,2013-09-19 23:46:00,
2013-09-19 18:01:00,68.2,35.0,30.10,WSW,241,3.0,5.0,29,0.00,,,0.00,278,weatherlink.com 1.10,2013-09-20 00:01:00,
2013-09-19 18:16:00,68.2,36.0,30.09,WSW,258,2.0,6.0,30,0.00,,,0.00,234,weatherlink.com 1.10,2013-09-20 00:16:00,
2013-09-19 18:31:00,68.4,36.0,30.09,WSW,241,3.0,4.0,30,0.00,,,0.00,185,weatherlink.com 1.10,2013-09-20 00:31:00,
2013-09-19 18:46:00,67.8,35.0,30.09,WSW,258,0.0,4.0,30,0.00,,,0.00,132,weatherlink.com 1.10,2013-09-20 00:46:00,
2013-09-19 19:01:00,66.0,37.0,30.08,WSW,258,1.0,2.0,35,0.00,,,0.00,19,weatherlink.com 1.10,2013-09-20 01:01:00,
2013-09-19 19:16:00,63.4,35.0,30.08,West,271,0.0,3.0,35,0.00,,,0.00,14,weatherlink.com 1.10,2013-09-20 01:16:00,
2013-09-19 19:31:00,62.0,35.0,30.08,NNE,20,4.0,5.0,37,0.00,,,0.00,9,weatherlink.com 1.10,2013-09-20 01:31:00,
2013-09-19 19:46:00,60.2,36.0,30.07,NNE,30,6.0,6.0,40,0.00,,,0.00,0,weatherlink.com 1.10,2013-09-20 01:46:00,
2013-09-19 20:01:00,59.9,35.0,30.08,NNE,23,5.0,7.0,39,0.00,,,0.00,0,weatherlink.com 1.10,2013-09-20 02:01:00,
2013-09-19 20:16:00,59.5,35.0,30.08,NNE,24,1.0,5.0,40,0.00,,,0.00,0,weatherlink.com 1.10,2013-09-20 02:16:00,
2013-09-19 20:31:00,58.7,35.0,30.08,NNE,29,1.0,5.0,42,0.00,,,0.00,0,weatherlink.com 1.10,2013-09-20 02:31:00,
2013-09-19 20:46:00,57.5,36.0,30.08,NNE,29,0.0,0.0,45,0.00,,,0.00,0,weatherlink.com 1.10,2013-09-20 02:46:00,
2013-09-19 21:01:00,56.5,36.0,30.09,NNE,29,4.0,4.0,46,0.00,,,0.00,0,weatherlink.com 1.10,2013-09-20 03:01:00,
2013-09-19 21:16:00,55.8,36.0,30.09,NE,34,4.0,5.0,47,0.00,,,0.00,0,weatherlink.com 1.10,2013-09-20 03:16:00,
2013-09-19 21:31:00,54.9,35.0,30.09,NE,54,5.0,5.0,48,0.00,,,0.00,0,weatherlink.com 1.10,2013-09-20 03:31:00,
2013-09-19 21:46:00,55.1,35.0,30.09,North,359,4.0,5.0,47,0.00,,,0.00,0,weatherlink.com 1.10,2013-09-20 03:46:00,
2013-09-19 22:01:00,55.1,36.0,30.08,North,358,3.0,7.0,48,0.00,,,0.00,0,weatherlink.com 1.10,2013-09-20 04:01:00,
2013-09-19 22:16:00,54.8,35.0,30.08,NNW,346,0.0,2.0,48,0.00,,,0.00,0,weatherlink.com 1.10,2013-09-20 04:16:00,
2013-09-19 22:46:00,54.0,36.0,30.09,NNW,334,4.0,5.0,50,0.00,,,0.00,0,weatherlink.com 1.10,2013-09-20 04:46:00,
2013-09-19 23:01:00,52.8,35.0,30.09,NNW,333,0.0,2.0,52,0.00,,,0.00,0,weatherlink.com 1.10,2013-09-20 05:01:00,
2013-09-19 23:16:00,51.9,36.0,30.10,NNW,331,0.0,2.0,54,0.00,,,0.00,0,weatherlink.com 1.10,2013-09-20 05:16:00,
2013-09-19 23:31:00,50.5,36.0,30.10,NNW,331,0.0,0.0,57,0.00,,,0.00,0,weatherlink.com 1.10,2013-09-20 05:31:00,
2013-09-19 23:46:00,49.1,36.0,30.10,NNW,331,0.0,2.0,60,0.00,,,0.00,0,weatherlink.com 1.10,2013-09-20 05:46:00,